Time,TemperatureF,DewpointF,PressureIn,WindDirection,WindDirectionDegrees,WindSpeedMPH,WindSpeedGustMPH,Humidity,HourlyPrecipIn,Conditions,Clouds,dailyrainin,SoftwareType,DateUTC
2013-04-25 00:12:00,38.0,33.0,30.15,SSW,204,0.0,-999.0,81,-99.99,,,0.00,weatherlink.com 1.10,2013-04-25 04:12:00,
2013-04-25 00:28:00,38.0,33.0,30.15,SSW,209,1.0,-999.0,82,-99.99,,,0.00,weatherlink.com 1.10,2013-04-25 04:28:00,
2013-04-25 00:43:00,38.0,33.0,30.15,SW,219,0.0,-999.0,82,-99.99,,,0.00,weatherlink.com 1.10,2013-04-25 04:43:00,
2013-04-25 00:58:00,37.7,33.0,30.15,SSW,213,0.0,-999.0,83,-99.99,,,0.00,weatherlink.com 1.10,2013-04-25 04:58:00,
2013-04-25 01:13:00,37.9,33.0,30.15,SW,219,0.0,-999.0,83,-99.99,,,0.00,weatherlink.com 1.10,2013-04-25 05:13:00,
2013-04-25 01:28:00,37.5,33.0,30.15,SW,219,0.0,-999.0,84,-99.99,,,0.00,weatherlink.com 1.10,2013-04-25 05:28:00,
2013-04-25 01:43:00,37.3,33.0,30.15,SW,215,0.0,-999.0,84,-99.99,,,0.00,weatherlink.com 1.10,2013-04-25 05:43:00,
2013-04-25 01:58:00,37.3,33.0,30.14,SW,232,0.0,-999.0,85,-99.99,,,0.00,weatherlink.com 1.10,2013-04-25 05:58:00,
2013-04-25 02:13:00,36.9,33.0,30.14,SW,219,0.0,-999.0,86,-99.99,,,0.00,weatherlink.com 1.10,2013-04-25 06:13:00,
2013-04-25 02:28:00,36.9,33.0,30.14,SW,216,0.0,-999.0,86,-99.99,,,0.00,weatherlink.com 1.10,2013-04-25 06:28:00,
2013-04-25 02:43:00,36.7,33.0,30.14,SW,219,0.0,-999.0,86,-99.99,,,0.00,weatherlink.com 1.10,2013-04-25 06:43:00,
2013-04-25 02:58:00,36.4,33.0,30.13,SW,214,0.0,-999.0,87,-99.99,,,0.00,weatherlink.com 1.10,2013-04-25 06:58:00,
2013-04-25 03:14:00,36.4,33.0,30.12,SSW,211,0.0,-999.0,86,-99.99,,,0.00,weatherlink.com 1.10,2013-04-25 07:14:00,
2013-04-25 03:29:00,36.4,33.0,30.12,SSW,207,0.0,-999.0,86,-99.99,,,0.00,weatherlink.com 1.10,2013-04-25 07:29:00,
2013-04-25 03:44:00,36.2,32.0,30.13,SW,215,0.0,-999.0,86,-99.99,,,0.00,weatherlink.com 1.10,2013-04-25 07:44:00,
2013-04-25 03:59:00,36.1,33.0,30.12,SSW,211,0.0,-999.0,87,-99.99,,,0.00,weatherlink.com 1.10,2013-04-25 07:59:00,
2013-04-25 04:14:00,35.9,32.0,30.12,SSW,202,0.0,-999.0,87,-99.99,,,0.00,weatherlink.com 1.10,2013-04-25 08:14:00,
2013-04-25 04:29:00,36.1,33.0,30.11,SSW,207,0.0,-999.0,87,-99.99,,,0.00,weatherlink.com 1.10,2013-04-25 08:29:00,
2013-04-25 04:44:00,36.2,32.0,30.11,SSW,213,0.0,-999.0,86,-99.99,,,0.00,weatherlink.com 1.10,2013-04-25 08:44:00,
2013-04-25 04:59:00,36.1,32.0,30.11,South,190,0.0,-999.0,86,-99.99,,,0.00,weatherlink.com 1.10,2013-04-25 08:59:00,
2013-04-25 05:14:00,36.2,32.0,30.11,SSW,195,0.0,-999.0,86,-99.99,,,0.00,weatherlink.com 1.10,2013-04-25 09:14:00,
2013-04-25 05:29:00,36.0,32.0,30.12,SSW,207,0.0,-999.0,86,-99.99,,,0.00,weatherlink.com 1.10,2013-04-25 09:29:00,
2013-04-25 05:44:00,36.2,32.0,30.12,SW,215,0.0,-999.0,86,-99.99,,,0.00,weatherlink.com 1.10,2013-04-25 09:44:00,
2013-04-25 05:59:00,36.5,33.0,30.12,SW,221,0.0,-999.0,86,-99.99,,,0.00,weatherlink.com 1.10,2013-04-25 09:59:00,
2013-04-25 06:14:00,36.6,33.0,30.11,SW,217,4.0,-999.0,86,-99.99,,,0.00,weatherlink.com 1.10,2013-04-25 10:14:00,
2013-04-25 06:30:00,36.9,33.0,30.11,South,184,0.0,-999.0,85,-99.99,,,0.00,weatherlink.com 1.10,2013-04-25 10:30:00,
2013-04-25 06:45:00,36.8,33.0,30.11,SW,223,1.0,-999.0,85,-99.99,,,0.00,weatherlink.com 1.10,2013-04-25 10:45:00,
2013-04-25 07:00:00,36.6,33.0,30.11,SW,216,0.0,-999.0,85,-99.99,,,0.00,weatherlink.com 1.10,2013-04-25 11:00:00,
2013-04-25 07:15:00,36.6,33.0,30.10,SW,219,0.0,-999.0,85,-99.99,,,0.00,weatherlink.com 1.10,2013-04-25 11:15:00,
2013-04-25 07:30:00,37.4,33.0,30.10,South,190,0.0,-999.0,85,-99.99,,,0.00,weatherlink.com 1.10,2013-04-25 11:30:00,
2013-04-25 07:45:00,38.2,34.0,30.11,SSW,211,0.0,-999.0,83,-99.99,,,0.00,weatherlink.com 1.10,2013-04-25 11:45:00,
2013-04-25 08:00:00,38.4,34.0,30.11,SW,217,1.0,-999.0,84,-99.99,,,0.00,weatherlink.com 1.10,2013-04-25 12:00:00,
2013-04-25 08:15:00,38.4,34.0,30.12,SW,223,5.0,-999.0,85,-99.99,,,0.00,weatherlink.com 1.10,2013-04-25 12:15:00,
2013-04-25 08:30:00,38.6,35.0,30.12,SSW,194,0.0,-999.0,85,-99.99,,,0.00,weatherlink.com 1.10,2013-04-25 12:30:00,
2013-04-25 08:45:00,38.8,35.0,30.12,SSW,213,0.0,-999.0,86,-99.99,,,0.00,weatherlink.com 1.10,2013-04-25 12:45:00,
2013-04-25 09:00:00,39.3,35.0,30.12,South,180,0.0,-999.0,85,-99.99,,,0.01,weatherlink.com 1.10,2013-04-25 13:00:00,
2013-04-25 09:16:00,40.4,36.0,30.13,SSW,208,0.0,-999.0,84,-99.99,,,0.01,weatherlink.com 1.10,2013-04-25 13:16:00,
2013-04-25 09:31:00,40.9,36.0,30.13,SW,236,6.0,-999.0,83,-99.99,,,0.01,weatherlink.com 1.10,2013-04-25 13:31:00,
2013-04-25 09:46:00,42.0,36.0,30.13,SW,236,16.0,-999.0,80,-99.99,,,0.01,weatherlink.com 1.10,2013-04-25 13:46:00,
2013-04-25 10:01:00,43.3,37.0,30.12,WSW,248,8.0,-999.0,77,-99.99,,,0.01,weatherlink.com 1.10,2013-04-25 14:01:00,
2013-04-25 10:16:00,45.3,38.0,30.12,WSW,241,10.0,-999.0,75,-99.99,,,0.01,weatherlink.com 1.10,2013-04-25 14:16:00,
2013-04-25 10:31:00,45.7,37.0,30.13,SW,236,5.0,-999.0,73,-99.99,,,0.01,weatherlink.com 1.10,2013-04-25 14:31:00,
2013-04-25 10:46:00,46.1,37.0,30.14,West,275,9.0,-999.0,71,-99.99,,,0.01,weatherlink.com 1.10,2013-04-25 14:46:00,
2013-04-25 11:01:00,45.8,37.0,30.15,WSW,254,11.0,-999.0,71,-99.99,,,0.01,weatherlink.com 1.10,2013-04-25 15:01:00,
2013-04-25 11:16:00,47.0,36.0,30.15,West,260,15.0,-999.0,66,-99.99,,,0.01,weatherlink.com 1.10,2013-04-25 15:16:00,
2013-04-25 11:31:00,45.5,35.0,30.16,WNW,285,15.0,-999.0,66,-99.99,,,0.01,weatherlink.com 1.10,2013-04-25 15:31:00,
2013-04-25 11:47:00,47.8,33.0,30.16,SW,236,16.0,-999.0,58,-99.99,,,0.01,weatherlink.com 1.10,2013-04-25 15:47:00,
2013-04-25 12:02:00,47.5,32.0,30.17,WSW,243,10.0,-999.0,56,-99.99,,,0.01,weatherlink.com 1.10,2013-04-25 16:02:00,
2013-04-25 12:17:00,49.0,30.0,30.17,WNW,285,8.0,-999.0,48,-99.99,,,0.01,weatherlink.com 1.10,2013-04-25 16:17:00,
2013-04-25 12:32:00,49.1,27.0,30.18,WNW,286,12.0,-999.0,42,-99.99,,,0.01,weatherlink.com 1.10,2013-04-25 16:32:00,
2013-04-25 12:47:00,49.8,30.0,30.18,WNW,288,15.0,-999.0,46,-99.99,,,0.01,weatherlink.com 1.10,2013-04-25 16:47:00,
2013-04-25 13:02:00,49.5,29.0,30.19,West,273,14.0,-999.0,45,-99.99,,,0.01,weatherlink.com 1.10,2013-04-25 17:02:00,
2013-04-25 13:17:00,48.7,31.0,30.20,WNW,284,19.0,-999.0,50,-99.99,,,0.01,weatherlink.com 1.10,2013-04-25 17:17:00,
2013-04-25 13:32:00,46.9,33.0,30.20,WSW,257,13.0,-999.0,58,-99.99,,,0.01,weatherlink.com 1.10,2013-04-25 17:32:00,
2013-04-25 13:47:00,45.5,34.0,30.21,West,275,7.0,-999.0,64,-99.99,,,0.01,weatherlink.com 1.10,2013-04-25 17:47:00,
2013-04-25 14:02:00,47.0,36.0,30.21,WSW,255,15.0,-999.0,65,-99.99,,,0.01,weatherlink.com 1.10,2013-04-25 18:02:00,
2013-04-25 14:18:00,47.7,35.0,30.21,West,271,10.0,-999.0,61,-99.99,,,0.01,weatherlink.com 1.10,2013-04-25 18:18:00,
2013-04-25 14:33:00,48.8,34.0,30.22,WSW,257,3.0,-999.0,56,-99.99,,,0.01,weatherlink.com 1.10,2013-04-25 18:33:00,
2013-04-25 14:48:00,49.9,33.0,30.22,NW,305,3.0,-999.0,53,-99.99,,,0.01,weatherlink.com 1.10,2013-04-25 18:48:00,
2013-04-25 15:03:00,49.1,31.0,30.23,WNW,283,13.0,-999.0,51,-99.99,,,0.01,weatherlink.com 1.10,2013-04-25 19:03:00,
2013-04-25 15:18:00,51.0,31.0,30.23,WNW,289,10.0,-999.0,47,-99.99,,,0.01,weatherlink.com 1.10,2013-04-25 19:18:00,
2013-04-25 15:33:00,51.9,33.0,30.23,NW,307,11.0,-999.0,48,-99.99,,,0.01,weatherlink.com 1.10,2013-04-25 19:33:00,
2013-04-25 15:48:00,50.9,31.0,30.23,WNW,290,10.0,-999.0,47,-99.99,,,0.01,weatherlink.com 1.10,2013-04-25 19:48:00,
2013-04-25 16:03:00,51.2,32.0,30.23,WNW,300,16.0,-999.0,49,-99.99,,,0.01,weatherlink.com 1.10,2013-04-25 20:03:00,
2013-04-25 16:18:00,50.8,32.0,30.23,WNW,293,5.0,-999.0,49,-99.99,,,0.01,weatherlink.com 1.10,2013-04-25 20:18:00,
2013-04-25 16:33:00,49.3,31.0,30.24,NW,313,8.0,-999.0,50,-99.99,,,0.01,weatherlink.com 1.10,2013-04-25 20:33:00,
2013-04-25 16:48:00,50.4,32.0,30.24,WNW,299,6.0,-999.0,49,-99.99,,,0.01,weatherlink.com 1.10,2013-04-25 20:48:00,
2013-04-25 17:03:00,49.4,32.0,30.24,WNW,290,9.0,-999.0,51,-99.99,,,0.01,weatherlink.com 1.10,2013-04-25 21:03:00,
2013-04-25 17:19:00,49.2,32.0,30.25,WNW,282,9.0,-999.0,51,-99.99,,,0.01,weatherlink.com 1.10,2013-04-25 21:19:00,
2013-04-25 17:34:00,48.5,32.0,30.26,WNW,284,12.0,-999.0,53,-99.99,,,0.01,weatherlink.com 1.10,2013-04-25 21:34:00,
2013-04-25 17:49:00,48.5,32.0,30.26,NW,311,7.0,-999.0,53,-99.99,,,0.01,weatherlink.com 1.10,2013-04-25 21:49:00,
2013-04-25 18:04:00,48.8,32.0,30.25,WNW,301,0.0,-999.0,52,-99.99,,,0.01,weatherlink.com 1.10,2013-04-25 22:04:00,
2013-04-25 18:19:00,48.8,32.0,30.26,WNW,298,2.0,-999.0,53,-99.99,,,0.01,weatherlink.com 1.10,2013-04-25 22:19:00,
2013-04-25 18:34:00,48.6,32.0,30.27,WNW,295,3.0,-999.0,54,-99.99,,,0.01,weatherlink.com 1.10,2013-04-25 22:34:00,
2013-04-25 18:49:00,48.3,32.0,30.27,West,281,3.0,-999.0,54,-99.99,,,0.01,weatherlink.com 1.10,2013-04-25 22:49:00,
2013-04-25 19:04:00,49.3,33.0,30.27,NW,324,5.0,-999.0,53,-99.99,,,0.01,weatherlink.com 1.10,2013-04-25 23:04:00,
2013-04-25 19:19:00,49.2,31.0,30.28,West,279,6.0,-999.0,50,-99.99,,,0.01,weatherlink.com 1.10,2013-04-25 23:19:00,
2013-04-25 19:34:00,48.4,31.0,30.28,NW,309,0.0,-999.0,52,-99.99,,,0.01,weatherlink.com 1.10,2013-04-25 23:34:00,
2013-04-25 19:49:00,48.2,32.0,30.28,West,271,0.0,-999.0,53,-99.99,,,0.01,weatherlink.com 1.10,2013-04-25 23:49:00,
2013-04-25 20:05:00,47.5,32.0,30.29,WNW,300,0.0,-999.0,55,-99.99,,,0.01,weatherlink.com 1.10,2013-04-26 00:05:00,
2013-04-25 20:20:00,47.0,32.0,30.29,WNW,302,0.0,-999.0,56,-99.99,,,0.01,weatherlink.com 1.10,2013-04-26 00:20:00,
2013-04-25 20:35:00,46.4,32.0,30.29,WNW,300,0.0,-999.0,58,-99.99,,,0.01,weatherlink.com 1.10,2013-04-26 00:35:00,
2013-04-25 20:50:00,45.4,32.0,30.29,WNW,300,0.0,-999.0,60,-99.99,,,0.01,weatherlink.com 1.10,2013-04-26 00:50:00,
2013-04-25 21:05:00,44.5,32.0,30.30,WNW,300,0.0,-999.0,62,-99.99,,,0.01,weatherlink.com 1.10,2013-04-26 01:05:00,
2013-04-25 21:20:00,43.4,32.0,30.30,WNW,300,0.0,-999.0,65,-99.99,,,0.01,weatherlink.com 1.10,2013-04-26 01:20:00,
2013-04-25 21:35:00,42.5,33.0,30.31,WNW,300,0.0,-999.0,68,-99.99,,,0.01,weatherlink.com 1.10,2013-04-26 01:35:00,
2013-04-25 21:50:00,41.6,32.0,30.31,WNW,300,0.0,-999.0,69,-99.99,,,0.01,weatherlink.com 1.10,2013-04-26 01:50:00,
2013-04-25 22:05:00,40.6,32.0,30.32,WNW,300,0.0,-999.0,71,-99.99,,,0.01,weatherlink.com 1.10,2013-04-26 02:05:00,
2013-04-25 22:20:00,39.8,32.0,30.33,WNW,300,0.0,-999.0,73,-99.99,,,0.01,weatherlink.com 1.10,2013-04-26 02:20:00,
2013-04-25 22:35:00,39.7,32.0,30.33,WNW,300,0.0,-999.0,74,-99.99,,,0.01,weatherlink.com 1.10,2013-04-26 02:35:00,
2013-04-25 22:50:00,40.1,32.0,30.33,WNW,300,0.0,-999.0,74,-99.99,,,0.01,weatherlink.com 1.10,2013-04-26 02:50:00,
2013-04-25 23:06:00,39.4,32.0,30.34,WNW,300,0.0,-999.0,75,-99.99,,,0.01,weatherlink.com 1.10,2013-04-26 03:06:00,
2013-04-25 23:21:00,38.5,32.0,30.34,WNW,300,0.0,-999.0,78,-99.99,,,0.01,weatherlink.com 1.10,2013-04-26 03:21:00,
2013-04-25 23:36:00,37.9,32.0,30.34,WNW,300,0.0,-999.0,79,-99.99,,,0.01,weatherlink.com 1.10,2013-04-26 03:36:00,
2013-04-25 23:51:00,38.0,32.0,30.34,South,171,0.0,-999.0,80,-99.99,,,0.01,weatherlink.com 1.10,2013-04-26 03:51:00,